createdAt,value
2018-04-29T00:04:05.495Z,18.33
2018-04-29T00:08:56.537Z,18.31
2018-04-29T00:13:47.572Z,18.28
2018-04-29T00:18:38.639Z,18.26
2018-04-29T00:23:30.470Z,18.21
2018-04-29T00:28:21.481Z,18.09
2018-04-29T00:33:12.622Z,18.07
2018-04-29T00:38:04.400Z,18.03
2018-04-29T00:42:55.440Z,18.01
2018-04-29T00:47:46.487Z,17.95
2018-04-29T00:52:37.589Z,17.79
2018-04-29T00:57:28.677Z,17.67
2018-04-29T01:02:19.740Z,17.48
2018-04-29T01:07:10.790Z,17.45
2018-04-29T01:12:01.944Z,17.45
2018-04-29T01:16:53.768Z,17.48
2018-04-29T01:21:45.644Z,17.53
2018-04-29T01:26:36.635Z,17.54
2018-04-29T01:31:28.419Z,17.57
2018-04-29T01:36:19.476Z,17.53
2018-04-29T01:41:10.548Z,17.51
2018-04-29T01:46:01.644Z,17.47
2018-04-29T01:50:53.471Z,17.44
2018-04-29T01:55:44.511Z,17.32
2018-04-29T02:00:36.305Z,17.21
2018-04-29T02:05:27.363Z,17.17
2018-04-29T02:10:19.163Z,17.12
2018-04-29T02:15:10.231Z,17.06
2018-04-29T02:20:02.023Z,17.04
2018-04-29T02:24:53.055Z,17.01
2018-04-29T02:29:44.090Z,16.92
2018-04-29T02:34:35.150Z,16.87
2018-04-29T02:39:26.932Z,16.78
2018-04-29T02:44:18.064Z,16.74
2018-04-29T02:49:09.077Z,16.71
2018-04-29T02:54:00.127Z,16.65
2018-04-29T02:58:51.599Z,16.57
2018-04-29T03:03:43.363Z,16.49
2018-04-29T03:08:34.432Z,16.44
2018-04-29T03:13:25.624Z,16.42
2018-04-29T03:18:16.723Z,16.44
2018-04-29T03:23:08.535Z,16.41
2018-04-29T03:27:59.568Z,16.37
2018-04-29T03:32:51.321Z,16.30
2018-04-29T03:37:43.123Z,16.23
2018-04-29T03:42:34.139Z,16.15
2018-04-29T03:47:25.185Z,16.02
2018-04-29T03:52:16.322Z,15.95
2018-04-29T03:57:26.140Z,15.86
2018-04-29T04:02:35.948Z,15.78
2018-04-29T04:07:27.710Z,15.66
2018-04-29T04:12:19.535Z,15.62
2018-04-29T04:17:11.357Z,15.64
2018-04-29T04:22:02.403Z,15.67
2018-04-29T04:26:54.167Z,15.68
2018-04-29T04:31:45.203Z,15.70
2018-04-29T04:36:36.241Z,15.76
2018-04-29T04:41:27.483Z,15.75
2018-04-29T04:46:18.548Z,15.75
2018-04-29T04:51:10.350Z,15.70
2018-04-29T04:56:01.399Z,15.57
2018-04-29T05:00:53.178Z,15.54
2018-04-29T05:05:44.211Z,15.56
2018-04-29T05:10:35.264Z,15.54
2018-04-29T05:15:26.341Z,15.51
2018-04-29T05:20:17.508Z,15.53
2018-04-29T05:25:08.556Z,15.59
2018-04-29T05:30:00.386Z,15.66
2018-04-29T05:34:51.568Z,15.71
2018-04-29T05:39:42.615Z,15.81
2018-04-29T05:44:33.680Z,15.89
2018-04-29T05:49:25.445Z,15.97
2018-04-29T05:54:16.520Z,16.06
2018-04-29T05:59:07.787Z,16.16
2018-04-29T06:03:59.170Z,16.28
2018-04-29T06:08:50.207Z,16.40
2018-04-29T06:13:41.495Z,16.51
2018-04-29T06:18:33.396Z,16.65
2018-04-29T06:23:24.419Z,16.82
2018-04-29T06:28:16.283Z,17.00
2018-04-29T06:33:07.341Z,17.22
2018-04-29T06:37:58.372Z,17.47
2018-04-29T06:42:49.415Z,17.72
2018-04-29T06:47:40.510Z,17.86
2018-04-29T06:52:31.542Z,18.08
2018-04-29T06:57:22.612Z,18.58
2018-04-29T07:02:14.395Z,19.07
2018-04-29T07:07:05.504Z,19.31
2018-04-29T07:11:56.547Z,19.09
2018-04-29T07:16:47.739Z,18.95
2018-04-29T07:21:38.795Z,18.84
2018-04-29T07:26:29.822Z,18.75
2018-04-29T07:31:20.908Z,18.75
2018-04-29T07:36:12.775Z,18.82
2018-04-29T07:41:03.864Z,18.90
2018-04-29T07:45:55.764Z,19.03
2018-04-29T07:50:46.840Z,19.03
2018-04-29T07:55:38.619Z,19.14
2018-04-29T08:00:29.676Z,19.65
2018-04-29T08:05:20.723Z,20.38
2018-04-29T08:10:12.504Z,20.48
2018-04-29T08:15:03.581Z,20.46
2018-04-29T08:19:55.395Z,20.50
2018-04-29T08:24:46.448Z,20.61
2018-04-29T08:29:38.280Z,20.81
2018-04-29T08:34:29.293Z,20.78
2018-04-29T08:39:20.326Z,20.71
2018-04-29T08:44:12.142Z,21.50
2018-04-29T08:49:03.151Z,22.35
2018-04-29T08:53:54.235Z,23.31
2018-04-29T08:58:46.004Z,23.65
2018-04-29T09:03:37.096Z,23.74
2018-04-29T09:08:28.873Z,24.26
2018-04-29T09:13:19.916Z,24.77
2018-04-29T09:18:10.992Z,25.18
2018-04-29T09:23:02.056Z,25.45
2018-04-29T09:27:53.227Z,25.72
2018-04-29T09:32:45.006Z,26.02
2018-04-29T09:37:36.090Z,26.33
2018-04-29T09:42:27.887Z,26.42
2018-04-29T09:47:18.963Z,26.65
2018-04-29T09:52:10.820Z,26.80
2018-04-29T09:57:01.839Z,26.91
2018-04-29T10:01:52.868Z,27.09
2018-04-29T10:06:43.951Z,27.15
2018-04-29T10:11:34.987Z,27.00
2018-04-29T10:16:27.169Z,26.92
2018-04-29T10:21:18.251Z,27.37
2018-04-29T10:26:09.275Z,27.73
2018-04-29T10:31:00.416Z,28.04
2018-04-29T10:35:52.188Z,28.14
2018-04-29T10:40:43.195Z,28.19
2018-04-29T10:45:34.227Z,28.37
2018-04-29T10:50:25.305Z,28.60
2018-04-29T10:55:16.335Z,28.91
2018-04-29T11:00:08.125Z,29.13
2018-04-29T11:04:59.147Z,29.20
2018-04-29T11:09:50.163Z,29.00
2018-04-29T11:14:41.278Z,28.74
2018-04-29T11:19:32.336Z,29.13
2018-04-29T11:24:23.534Z,29.50
2018-04-29T11:29:14.620Z,29.71
2018-04-29T11:34:06.438Z,29.59
2018-04-29T11:38:57.587Z,29.42
2018-04-29T11:43:49.391Z,29.39
2018-04-29T11:48:40.460Z,29.48
2018-04-29T11:53:32.284Z,29.82
2018-04-29T11:58:24.097Z,29.64
2018-04-29T12:03:15.156Z,29.88
2018-04-29T12:08:06.307Z,30.16
2018-04-29T12:12:57.347Z,30.42
2018-04-29T12:17:48.399Z,30.53
2018-04-29T12:22:39.456Z,30.74
2018-04-29T12:27:31.276Z,30.80
2018-04-29T12:32:22.334Z,30.53
2018-04-29T12:37:13.474Z,30.54
2018-04-29T12:42:04.511Z,30.56
2018-04-29T12:46:55.611Z,30.41
2018-04-29T12:51:47.443Z,30.20
2018-04-29T12:56:39.217Z,30.11
2018-04-29T13:01:30.255Z,30.28
2018-04-29T13:06:21.380Z,30.16
2018-04-29T13:11:12.465Z,30.15
2018-04-29T13:16:04.260Z,30.00
2018-04-29T13:20:55.308Z,30.10
2018-04-29T13:25:46.375Z,30.12
2018-04-29T13:30:38.196Z,29.98
2018-04-29T13:35:29.270Z,29.82
2018-04-29T13:40:20.295Z,29.91
2018-04-29T13:45:11.582Z,29.96
2018-04-29T13:50:03.439Z,29.85
2018-04-29T13:54:55.344Z,29.95
2018-04-29T13:59:46.407Z,30.15
2018-04-29T14:04:37.496Z,30.26
2018-04-29T14:09:28.567Z,30.17
2018-04-29T14:14:20.359Z,30.12
2018-04-29T14:19:11.477Z,29.98
2018-04-29T14:24:02.494Z,29.88
2018-04-29T14:28:53.582Z,29.57
2018-04-29T14:33:45.376Z,29.75
2018-04-29T14:38:37.972Z,29.63
2018-04-29T14:43:29.765Z,29.45
2018-04-29T14:48:20.987Z,29.39
2018-04-29T14:53:12.031Z,29.43
2018-04-29T14:58:03.123Z,29.50
2018-04-29T15:02:54.325Z,29.62
2018-04-29T15:07:46.185Z,29.49
2018-04-29T15:12:38.061Z,29.45
2018-04-29T15:17:29.154Z,29.33
2018-04-29T15:22:20.237Z,29.18
2018-04-29T15:27:11.323Z,28.82
2018-04-29T15:32:02.417Z,28.84
2018-04-29T15:36:54.184Z,28.84
2018-04-29T15:41:45.265Z,28.82
2018-04-29T15:46:37.120Z,28.68
2018-04-29T15:51:28.135Z,28.58
2018-04-29T15:56:19.895Z,28.50
2018-04-29T16:01:11.012Z,28.31
2018-04-29T16:06:02.791Z,28.17
2018-04-29T16:10:53.839Z,28.15
2018-04-29T16:15:44.939Z,28.09
2018-04-29T16:20:36.052Z,28.08
2018-04-29T16:25:27.099Z,28.04
2018-04-29T16:30:18.221Z,27.84
2018-04-29T16:35:09.251Z,27.73
2018-04-29T16:40:00.326Z,27.69
2018-04-29T16:44:52.160Z,27.61
2018-04-29T16:49:44.014Z,27.48
2018-04-29T16:54:35.066Z,27.26
2018-04-29T16:59:26.151Z,27.15
2018-04-29T17:04:17.961Z,27.04
2018-04-29T17:09:08.995Z,26.99
2018-04-29T17:14:00.024Z,26.95
2018-04-29T17:18:51.803Z,26.88
2018-04-29T17:23:42.941Z,26.83
2018-04-29T17:28:33.956Z,26.78
2018-04-29T17:33:25.018Z,26.65
2018-04-29T17:38:16.080Z,26.52
2018-04-29T17:43:07.147Z,26.43
2018-04-29T17:47:58.360Z,26.37
2018-04-29T17:52:49.415Z,26.24
2018-04-29T17:57:40.442Z,26.14
2018-04-29T18:02:31.566Z,26.04
2018-04-29T18:07:22.759Z,25.85
2018-04-29T18:12:13.796Z,25.74
2018-04-29T18:17:04.927Z,25.68
2018-04-29T18:21:56.633Z,25.53
2018-04-29T18:26:47.719Z,25.42
2018-04-29T18:31:39.496Z,25.34
2018-04-29T18:36:30.535Z,25.24
2018-04-29T18:41:21.637Z,25.14
2018-04-29T18:46:12.666Z,25.00
2018-04-29T18:51:03.758Z,24.89
2018-04-29T18:55:54.771Z,24.81
2018-04-29T19:00:46.577Z,24.69
2018-04-29T19:05:46.895Z,24.56
2018-04-29T19:10:37.909Z,24.41
2018-04-29T19:15:28.983Z,24.26
2018-04-29T19:20:20.743Z,24.13
2018-04-29T19:25:12.528Z,23.95
2018-04-29T19:30:03.607Z,23.78
2018-04-29T19:34:55.490Z,23.59
2018-04-29T19:39:46.540Z,23.43
2018-04-29T19:44:37.552Z,23.37
2018-04-29T19:49:28.627Z,23.37
2018-04-29T19:54:20.408Z,23.29
2018-04-29T19:59:11.434Z,23.25
2018-04-29T20:04:02.527Z,23.14
2018-04-29T20:08:54.363Z,23.09
2018-04-29T20:13:46.184Z,22.97
2018-04-29T20:18:37.200Z,22.87
2018-04-29T20:23:28.231Z,22.79
2018-04-29T20:28:19.384Z,22.69
2018-04-29T20:33:11.175Z,22.59
2018-04-29T20:38:02.282Z,22.41
2018-04-29T20:42:53.244Z,22.24
2018-04-29T20:47:44.306Z,22.14
2018-04-29T20:52:35.355Z,22.09
2018-04-29T20:57:26.402Z,21.95
2018-04-29T21:02:17.431Z,21.86
2018-04-29T21:07:08.471Z,21.78
2018-04-29T21:12:00.327Z,21.66
2018-04-29T21:16:52.086Z,21.58
2018-04-29T21:21:43.109Z,21.51
2018-04-29T21:26:34.204Z,21.50
2018-04-29T21:31:26.057Z,21.39
2018-04-29T21:36:17.849Z,21.30
2018-04-29T21:41:09.008Z,21.21
2018-04-29T21:46:00.043Z,21.11
2018-04-29T21:50:51.822Z,21.01
2018-04-29T21:55:42.835Z,20.90
2018-04-29T22:00:33.977Z,20.82
2018-04-29T22:05:25.019Z,20.69
2018-04-29T22:10:16.042Z,20.67
2018-04-29T22:15:07.046Z,20.60
2018-04-29T22:19:58.068Z,20.57
2018-04-29T22:24:49.143Z,20.53
2018-04-29T22:29:40.902Z,20.45
2018-04-29T22:34:31.920Z,20.39
2018-04-29T22:39:22.942Z,20.32
2018-04-29T22:44:14.030Z,20.22
2018-04-29T22:49:06.539Z,20.14
2018-04-29T22:53:57.549Z,20.08
2018-04-29T22:58:48.560Z,19.97
2018-04-29T23:03:40.311Z,19.92
2018-04-29T23:08:31.360Z,19.85
2018-04-29T23:13:22.379Z,19.80
2018-04-29T23:18:13.391Z,19.76
2018-04-29T23:23:04.557Z,19.73
2018-04-29T23:27:55.570Z,19.63
2018-04-29T23:32:46.602Z,19.59
2018-04-29T23:37:37.639Z,19.52
2018-04-29T23:42:28.796Z,19.46
2018-04-29T23:47:20.653Z,19.43
2018-04-29T23:52:11.674Z,19.39
2018-04-29T23:57:02.687Z,19.37
